sensor_id;sensor_type;location;lat;lon;timestamp;temperature;humidity
27759;DHT22;15148;48.972;12.794;2022-11-20T00:00:21;2.40;99.90
27759;DHT22;15148;48.972;12.794;2022-11-20T00:05:23;2.40;99.90
27759;DHT22;15148;48.972;12.794;2022-11-20T00:10:25;2.40;99.90
27759;DHT22;15148;48.972;12.794;2022-11-20T00:15:26;2.40;99.90
27759;DHT22;15148;48.972;12.794;2022-11-20T00:20:28;2.40;99.90
27759;DHT22;15148;48.972;12.794;2022-11-20T00:25:30;2.20;99.90
27759;DHT22;15148;48.972;12.794;2022-11-20T00:30:31;2.20;99.90
27759;DHT22;15148;48.972;12.794;2022-11-20T00:35:33;2.30;99.90
27759;DHT22;15148;48.972;12.794;2022-11-20T00:40:35;2.40;99.90
27759;DHT22;15148;48.972;12.794;2022-11-20T00:45:37;2.40;99.90
27759;DHT22;15148;48.972;12.794;2022-11-20T00:50:39;2.40;99.90
27759;DHT22;15148;48.972;12.794;2022-11-20T00:55:42;2.40;99.90
27759;DHT22;15148;48.972;12.794;2022-11-20T01:00:44;2.40;99.90
27759;DHT22;15148;48.972;12.794;2022-11-20T01:05:45;2.40;99.90
27759;DHT22;15148;48.972;12.794;2022-11-20T01:10:47;2.50;99.90
27759;DHT22;15148;48.972;12.794;2022-11-20T01:15:49;2.50;99.90
27759;DHT22;15148;48.972;12.794;2022-11-20T01:20:51;2.50;99.90
27759;DHT22;15148;48.972;12.794;2022-11-20T01:25:52;2.50;99.90
27759;DHT22;15148;48.972;12.794;2022-11-20T01:30:54;2.50;99.90
27759;DHT22;15148;48.972;12.794;2022-11-20T01:36:04;2.30;99.90
27759;DHT22;15148;48.972;12.794;2022-11-20T01:41:07;2.40;99.90
27759;DHT22;15148;48.972;12.794;2022-11-20T01:46:18;2.50;99.90
27759;DHT22;15148;48.972;12.794;2022-11-20T01:51:26;2.40;99.90
27759;DHT22;15148;48.972;12.794;2022-11-20T01:56:31;2.40;99.90
27759;DHT22;15148;48.972;12.794;2022-11-20T02:01:37;2.40;99.90
27759;DHT22;15148;48.972;12.794;2022-11-20T02:06:54;2.40;99.90
27759;DHT22;15148;48.972;12.794;2022-11-20T02:11:57;2.50;99.90
27759;DHT22;15148;48.972;12.794;2022-11-20T02:16:59;2.50;99.90
27759;DHT22;15148;48.972;12.794;2022-11-20T02:22:35;2.40;99.90
27759;DHT22;15148;48.972;12.794;2022-11-20T02:27:38;2.40;99.90
27759;DHT22;15148;48.972;12.794;2022-11-20T02:32:40;2.50;99.90
27759;DHT22;15148;48.972;12.794;2022-11-20T02:37:42;2.50;99.90
27759;DHT22;15148;48.972;12.794;2022-11-20T02:42:44;2.60;99.90
27759;DHT22;15148;48.972;12.794;2022-11-20T02:47:46;2.60;99.90
27759;DHT22;15148;48.972;12.794;2022-11-20T02:52:48;2.60;99.90
27759;DHT22;15148;48.972;12.794;2022-11-20T02:57:50;2.60;99.90
27759;DHT22;15148;48.972;12.794;2022-11-20T03:02:52;2.70;99.90
27759;DHT22;15148;48.972;12.794;2022-11-20T03:07:53;2.60;99.90
27759;DHT22;15148;48.972;12.794;2022-11-20T03:12:55;2.60;99.90
27759;DHT22;15148;48.972;12.794;2022-11-20T03:17:57;2.60;99.90
27759;DHT22;15148;48.972;12.794;2022-11-20T03:22:59;2.60;99.90
27759;DHT22;15148;48.972;12.794;2022-11-20T03:28:01;2.60;99.90
27759;DHT22;15148;48.972;12.794;2022-11-20T03:33:03;2.70;99.90
27759;DHT22;15148;48.972;12.794;2022-11-20T03:38:05;2.70;99.90
27759;DHT22;15148;48.972;12.794;2022-11-20T03:43:09;2.70;99.90
27759;DHT22;15148;48.972;12.794;2022-11-20T03:48:10;2.60;99.90
27759;DHT22;15148;48.972;12.794;2022-11-20T03:53:13;2.70;99.90
27759;DHT22;15148;48.972;12.794;2022-11-20T03:58:14;2.70;99.90
27759;DHT22;15148;48.972;12.794;2022-11-20T04:03:16;2.70;99.90
27759;DHT22;15148;48.972;12.794;2022-11-20T04:08:18;2.60;99.90
27759;DHT22;15148;48.972;12.794;2022-11-20T04:13:20;2.60;99.90
27759;DHT22;15148;48.972;12.794;2022-11-20T04:18:22;2.60;99.90
27759;DHT22;15148;48.972;12.794;2022-11-20T04:23:24;2.50;99.90
27759;DHT22;15148;48.972;12.794;2022-11-20T04:28:29;2.40;99.90
27759;DHT22;15148;48.972;12.794;2022-11-20T04:33:31;2.40;99.90
27759;DHT22;15148;48.972;12.794;2022-11-20T04:38:35;2.30;99.90
27759;DHT22;15148;48.972;12.794;2022-11-20T04:43:36;2.00;99.90
27759;DHT22;15148;48.972;12.794;2022-11-20T04:48:38;2.20;99.90
27759;DHT22;15148;48.972;12.794;2022-11-20T04:53:40;2.10;99.90
27759;DHT22;15148;48.972;12.794;2022-11-20T04:58:42;2.00;99.90
27759;DHT22;15148;48.972;12.794;2022-11-20T05:03:44;1.90;99.90
27759;DHT22;15148;48.972;12.794;2022-11-20T05:08:46;1.90;99.90
27759;DHT22;15148;48.972;12.794;2022-11-20T05:13:50;1.90;99.90
27759;DHT22;15148;48.972;12.794;2022-11-20T05:18:53;1.80;99.90
27759;DHT22;15148;48.972;12.794;2022-11-20T05:23:55;1.90;99.90
27759;DHT22;15148;48.972;12.794;2022-11-20T05:28:57;2.00;99.90
27759;DHT22;15148;48.972;12.794;2022-11-20T05:33:59;2.00;99.90
27759;DHT22;15148;48.972;12.794;2022-11-20T05:39:01;2.00;99.90
27759;DHT22;15148;48.972;12.794;2022-11-20T05:44:03;2.00;99.90
27759;DHT22;15148;48.972;12.794;2022-11-20T05:49:05;2.00;99.90
27759;DHT22;15148;48.972;12.794;2022-11-20T05:54:07;2.10;99.90
27759;DHT22;15148;48.972;12.794;2022-11-20T05:59:08;2.10;99.90
27759;DHT22;15148;48.972;12.794;2022-11-20T06:04:10;2.20;99.90
27759;DHT22;15148;48.972;12.794;2022-11-20T06:09:12;2.10;99.90
27759;DHT22;15148;48.972;12.794;2022-11-20T06:14:14;2.20;99.90
27759;DHT22;15148;48.972;12.794;2022-11-20T06:19:15;2.20;99.90
27759;DHT22;15148;48.972;12.794;2022-11-20T06:24:17;2.10;99.90
27759;DHT22;15148;48.972;12.794;2022-11-20T06:29:19;2.20;99.90
27759;DHT22;15148;48.972;12.794;2022-11-20T06:34:22;2.00;99.90
27759;DHT22;15148;48.972;12.794;2022-11-20T06:39:23;2.10;99.90
27759;DHT22;15148;48.972;12.794;2022-11-20T06:44:25;2.20;99.90
27759;DHT22;15148;48.972;12.794;2022-11-20T06:49:27;2.20;99.90
27759;DHT22;15148;48.972;12.794;2022-11-20T06:54:29;2.30;99.90
27759;DHT22;15148;48.972;12.794;2022-11-20T06:59:31;2.30;99.90
27759;DHT22;15148;48.972;12.794;2022-11-20T07:04:32;2.30;99.90
27759;DHT22;15148;48.972;12.794;2022-11-20T07:09:34;2.20;99.90
27759;DHT22;15148;48.972;12.794;2022-11-20T07:14:36;2.20;99.90
27759;DHT22;15148;48.972;12.794;2022-11-20T07:19:38;2.20;99.90
27759;DHT22;15148;48.972;12.794;2022-11-20T07:24:40;2.30;99.90
27759;DHT22;15148;48.972;12.794;2022-11-20T07:29:46;2.30;99.90
27759;DHT22;15148;48.972;12.794;2022-11-20T07:34:48;2.40;99.90
27759;DHT22;15148;48.972;12.794;2022-11-20T07:39:50;2.40;99.90
27759;DHT22;15148;48.972;12.794;2022-11-20T07:44:52;2.50;99.90
27759;DHT22;15148;48.972;12.794;2022-11-20T07:49:53;2.40;99.90
27759;DHT22;15148;48.972;12.794;2022-11-20T07:54:55;2.50;99.90
27759;DHT22;15148;48.972;12.794;2022-11-20T07:59:57;2.50;99.90
27759;DHT22;15148;48.972;12.794;2022-11-20T08:04:59;2.60;99.90
27759;DHT22;15148;48.972;12.794;2022-11-20T08:10:00;2.70;99.90
27759;DHT22;15148;48.972;12.794;2022-11-20T08:15:04;2.70;99.90
27759;DHT22;15148;48.972;12.794;2022-11-20T08:20:13;2.60;99.90
27759;DHT22;15148;48.972;12.794;2022-11-20T08:25:15;2.70;99.90
27759;DHT22;15148;48.972;12.794;2022-11-20T08:30:17;2.70;99.90
27759;DHT22;15148;48.972;12.794;2022-11-20T08:35:19;2.70;99.90
27759;DHT22;15148;48.972;12.794;2022-11-20T08:40:21;2.80;99.90
27759;DHT22;15148;48.972;12.794;2022-11-20T08:45:23;2.80;99.90
27759;DHT22;15148;48.972;12.794;2022-11-20T08:50:24;2.90;99.90
27759;DHT22;15148;48.972;12.794;2022-11-20T08:55:26;3.00;99.90
27759;DHT22;15148;48.972;12.794;2022-11-20T09:00:28;3.00;99.90
27759;DHT22;15148;48.972;12.794;2022-11-20T09:05:30;2.90;99.90
27759;DHT22;15148;48.972;12.794;2022-11-20T09:10:31;2.80;99.90
27759;DHT22;15148;48.972;12.794;2022-11-20T09:15:34;2.80;99.90
27759;DHT22;15148;48.972;12.794;2022-11-20T09:20:36;2.90;99.90
27759;DHT22;15148;48.972;12.794;2022-11-20T09:25:39;2.90;99.90
27759;DHT22;15148;48.972;12.794;2022-11-20T09:30:41;2.90;99.90
27759;DHT22;15148;48.972;12.794;2022-11-20T09:35:43;2.90;99.90
27759;DHT22;15148;48.972;12.794;2022-11-20T09:46:27;3.10;99.90
27759;DHT22;15148;48.972;12.794;2022-11-20T09:56:44;3.10;99.90
27759;DHT22;15148;48.972;12.794;2022-11-20T10:01:49;3.10;99.90
27759;DHT22;15148;48.972;12.794;2022-11-20T10:06:59;3.10;99.90
27759;DHT22;15148;48.972;12.794;2022-11-20T10:12:43;3.20;99.90
27759;DHT22;15148;48.972;12.794;2022-11-20T10:23:35;3.10;99.90
27759;DHT22;15148;48.972;12.794;2022-11-20T10:29:23;3.20;99.90
27759;DHT22;15148;48.972;12.794;2022-11-20T10:34:33;3.20;99.90
27759;DHT22;15148;48.972;12.794;2022-11-20T10:39:57;3.20;99.90
27759;DHT22;15148;48.972;12.794;2022-11-20T10:45:15;3.30;99.90
27759;DHT22;15148;48.972;12.794;2022-11-20T10:50:21;3.30;99.90
27759;DHT22;15148;48.972;12.794;2022-11-20T10:55:40;3.40;99.90
27759;DHT22;15148;48.972;12.794;2022-11-20T11:00:44;3.50;99.90
27759;DHT22;15148;48.972;12.794;2022-11-20T11:06:10;3.50;99.90
27759;DHT22;15148;48.972;12.794;2022-11-20T11:11:26;3.70;99.90
27759;DHT22;15148;48.972;12.794;2022-11-20T11:16:31;3.80;99.90
27759;DHT22;15148;48.972;12.794;2022-11-20T11:21:34;3.80;99.90
27759;DHT22;15148;48.972;12.794;2022-11-20T11:26:37;3.90;99.90
27759;DHT22;15148;48.972;12.794;2022-11-20T11:31:39;3.90;99.90
27759;DHT22;15148;48.972;12.794;2022-11-20T11:36:41;4.00;99.90
27759;DHT22;15148;48.972;12.794;2022-11-20T11:41:44;4.00;99.90
27759;DHT22;15148;48.972;12.794;2022-11-20T11:46:55;4.10;99.90
27759;DHT22;15148;48.972;12.794;2022-11-20T11:52:14;4.10;99.90
27759;DHT22;15148;48.972;12.794;2022-11-20T11:57:29;4.10;99.90
27759;DHT22;15148;48.972;12.794;2022-11-20T12:08:02;4.20;99.90
27759;DHT22;15148;48.972;12.794;2022-11-20T12:13:34;4.20;99.90
27759;DHT22;15148;48.972;12.794;2022-11-20T12:18:36;4.20;99.90
27759;DHT22;15148;48.972;12.794;2022-11-20T12:29:21;4.20;99.90
27759;DHT22;15148;48.972;12.794;2022-11-20T12:39:50;4.20;99.90
27759;DHT22;15148;48.972;12.794;2022-11-20T12:45:03;4.30;99.90
27759;DHT22;15148;48.972;12.794;2022-11-20T12:50:42;4.30;99.90
27759;DHT22;15148;48.972;12.794;2022-11-20T13:01:47;4.40;99.90
27759;DHT22;15148;48.972;12.794;2022-11-20T13:06:52;4.40;99.90
27759;DHT22;15148;48.972;12.794;2022-11-20T13:12:49;4.40;99.90
27759;DHT22;15148;48.972;12.794;2022-11-20T13:17:46;4.40;99.90
27759;DHT22;15148;48.972;12.794;2022-11-20T13:22:53;4.40;99.90
27759;DHT22;15148;48.972;12.794;2022-11-20T13:28:04;4.40;99.90
27759;DHT22;15148;48.972;12.794;2022-11-20T13:33:07;4.40;99.90
27759;DHT22;15148;48.972;12.794;2022-11-20T13:38:12;4.50;99.90
27759;DHT22;15148;48.972;12.794;2022-11-20T13:43:27;4.50;99.90
27759;DHT22;15148;48.972;12.794;2022-11-20T13:48:38;4.50;99.90
27759;DHT22;15148;48.972;12.794;2022-11-20T13:54:02;4.50;99.90
27759;DHT22;15148;48.972;12.794;2022-11-20T14:04:36;4.60;99.90
27759;DHT22;15148;48.972;12.794;2022-11-20T14:09:55;4.60;99.90
27759;DHT22;15148;48.972;12.794;2022-11-20T14:14:58;4.70;99.90
27759;DHT22;15148;48.972;12.794;2022-11-20T14:20:11;4.60;99.90
27759;DHT22;15148;48.972;12.794;2022-11-20T14:30:18;4.70;99.90
27759;DHT22;15148;48.972;12.794;2022-11-20T14:35:33;4.70;99.90
27759;DHT22;15148;48.972;12.794;2022-11-20T14:40:36;4.70;99.90
27759;DHT22;15148;48.972;12.794;2022-11-20T14:45:38;4.70;99.90
27759;DHT22;15148;48.972;12.794;2022-11-20T14:50:40;4.70;99.90
27759;DHT22;15148;48.972;12.794;2022-11-20T14:55:42;4.70;99.90
27759;DHT22;15148;48.972;12.794;2022-11-20T15:00:54;4.70;99.90
27759;DHT22;15148;48.972;12.794;2022-11-20T15:05:56;4.70;99.90
27759;DHT22;15148;48.972;12.794;2022-11-20T15:10:58;4.70;99.90
27759;DHT22;15148;48.972;12.794;2022-11-20T15:16:08;4.80;99.90
27759;DHT22;15148;48.972;12.794;2022-11-20T15:21:15;4.80;99.90
27759;DHT22;15148;48.972;12.794;2022-11-20T15:26:24;4.80;99.90
27759;DHT22;15148;48.972;12.794;2022-11-20T15:31:27;4.70;99.90
27759;DHT22;15148;48.972;12.794;2022-11-20T15:36:29;4.70;99.90
27759;DHT22;15148;48.972;12.794;2022-11-20T15:41:30;4.70;99.90
27759;DHT22;15148;48.972;12.794;2022-11-20T15:46:35;4.70;99.90
27759;DHT22;15148;48.972;12.794;2022-11-20T15:51:43;4.80;99.90
27759;DHT22;15148;48.972;12.794;2022-11-20T15:56:45;4.70;99.90
27759;DHT22;15148;48.972;12.794;2022-11-20T16:01:47;4.70;99.90
27759;DHT22;15148;48.972;12.794;2022-11-20T16:06:49;4.70;99.90
27759;DHT22;15148;48.972;12.794;2022-11-20T16:11:51;4.70;99.90
27759;DHT22;15148;48.972;12.794;2022-11-20T16:16:53;4.70;99.90
27759;DHT22;15148;48.972;12.794;2022-11-20T16:21:56;4.70;99.90
27759;DHT22;15148;48.972;12.794;2022-11-20T16:27:03;4.70;99.90
27759;DHT22;15148;48.972;12.794;2022-11-20T16:32:05;4.70;99.90
27759;DHT22;15148;48.972;12.794;2022-11-20T16:37:07;4.80;99.90
27759;DHT22;15148;48.972;12.794;2022-11-20T16:42:15;4.80;99.90
27759;DHT22;15148;48.972;12.794;2022-11-20T16:47:17;4.80;99.90
27759;DHT22;15148;48.972;12.794;2022-11-20T16:52:19;4.80;99.90
27759;DHT22;15148;48.972;12.794;2022-11-20T16:57:21;4.80;99.90
27759;DHT22;15148;48.972;12.794;2022-11-20T17:02:23;4.60;99.90
27759;DHT22;15148;48.972;12.794;2022-11-20T17:07:25;4.50;99.90
27759;DHT22;15148;48.972;12.794;2022-11-20T17:12:27;4.20;99.90
27759;DHT22;15148;48.972;12.794;2022-11-20T17:17:29;4.20;99.90
27759;DHT22;15148;48.972;12.794;2022-11-20T17:22:30;4.20;99.90
27759;DHT22;15148;48.972;12.794;2022-11-20T17:27:32;4.20;99.90
27759;DHT22;15148;48.972;12.794;2022-11-20T17:32:34;4.20;99.90
27759;DHT22;15148;48.972;12.794;2022-11-20T17:37:36;4.20;99.90
27759;DHT22;15148;48.972;12.794;2022-11-20T17:42:37;4.20;99.90
27759;DHT22;15148;48.972;12.794;2022-11-20T17:47:39;4.20;99.90
27759;DHT22;15148;48.972;12.794;2022-11-20T17:52:42;4.20;99.90
27759;DHT22;15148;48.972;12.794;2022-11-20T17:57:44;4.20;99.90
27759;DHT22;15148;48.972;12.794;2022-11-20T18:02:57;4.10;99.90
27759;DHT22;15148;48.972;12.794;2022-11-20T18:07:59;4.00;99.90
27759;DHT22;15148;48.972;12.794;2022-11-20T18:13:01;4.00;99.90
27759;DHT22;15148;48.972;12.794;2022-11-20T18:18:03;3.90;99.90
27759;DHT22;15148;48.972;12.794;2022-11-20T18:23:05;3.90;99.90
27759;DHT22;15148;48.972;12.794;2022-11-20T18:28:06;3.80;99.90
27759;DHT22;15148;48.972;12.794;2022-11-20T18:33:08;3.80;99.90
27759;DHT22;15148;48.972;12.794;2022-11-20T18:38:10;3.80;99.90
27759;DHT22;15148;48.972;12.794;2022-11-20T18:43:15;3.80;99.90
27759;DHT22;15148;48.972;12.794;2022-11-20T18:48:35;3.70;99.90
27759;DHT22;15148;48.972;12.794;2022-11-20T18:53:37;3.80;99.90
27759;DHT22;15148;48.972;12.794;2022-11-20T18:58:44;3.80;99.90
27759;DHT22;15148;48.972;12.794;2022-11-20T19:03:46;3.80;99.90
27759;DHT22;15148;48.972;12.794;2022-11-20T19:08:48;3.80;99.90
27759;DHT22;15148;48.972;12.794;2022-11-20T19:13:50;3.80;99.90
27759;DHT22;15148;48.972;12.794;2022-11-20T19:18:52;3.70;99.90
27759;DHT22;15148;48.972;12.794;2022-11-20T19:24:00;3.60;99.90
27759;DHT22;15148;48.972;12.794;2022-11-20T19:29:03;3.50;99.90
27759;DHT22;15148;48.972;12.794;2022-11-20T19:34:05;3.50;99.90
27759;DHT22;15148;48.972;12.794;2022-11-20T19:39:08;3.30;99.90
27759;DHT22;15148;48.972;12.794;2022-11-20T19:44:12;3.20;99.90
27759;DHT22;15148;48.972;12.794;2022-11-20T19:49:14;3.10;99.90
27759;DHT22;15148;48.972;12.794;2022-11-20T19:54:16;3.10;99.90
27759;DHT22;15148;48.972;12.794;2022-11-20T19:59:18;3.10;99.90
27759;DHT22;15148;48.972;12.794;2022-11-20T20:04:20;3.10;99.90
27759;DHT22;15148;48.972;12.794;2022-11-20T20:09:21;3.20;99.90
27759;DHT22;15148;48.972;12.794;2022-11-20T20:14:24;3.30;99.90
27759;DHT22;15148;48.972;12.794;2022-11-20T20:19:27;3.30;99.90
27759;DHT22;15148;48.972;12.794;2022-11-20T20:24:28;3.30;99.90
27759;DHT22;15148;48.972;12.794;2022-11-20T20:29:30;3.30;99.90
27759;DHT22;15148;48.972;12.794;2022-11-20T20:34:32;3.30;99.90
27759;DHT22;15148;48.972;12.794;2022-11-20T20:39:34;3.30;99.90
27759;DHT22;15148;48.972;12.794;2022-11-20T20:44:35;3.30;99.90
27759;DHT22;15148;48.972;12.794;2022-11-20T20:49:56;3.20;99.90
27759;DHT22;15148;48.972;12.794;2022-11-20T20:54:58;3.30;99.90
27759;DHT22;15148;48.972;12.794;2022-11-20T21:00:00;3.30;99.90
27759;DHT22;15148;48.972;12.794;2022-11-20T21:05:02;3.30;99.90
27759;DHT22;15148;48.972;12.794;2022-11-20T21:10:04;3.20;99.90
27759;DHT22;15148;48.972;12.794;2022-11-20T21:15:06;3.20;99.90
27759;DHT22;15148;48.972;12.794;2022-11-20T21:20:09;3.10;99.90
27759;DHT22;15148;48.972;12.794;2022-11-20T21:25:34;3.10;99.90
27759;DHT22;15148;48.972;12.794;2022-11-20T21:30:36;3.00;99.90
27759;DHT22;15148;48.972;12.794;2022-11-20T21:35:38;2.80;99.90
27759;DHT22;15148;48.972;12.794;2022-11-20T21:40:40;2.90;99.90
27759;DHT22;15148;48.972;12.794;2022-11-20T21:45:41;3.00;99.90
27759;DHT22;15148;48.972;12.794;2022-11-20T21:50:43;3.00;99.90
27759;DHT22;15148;48.972;12.794;2022-11-20T21:55:52;3.10;99.90
27759;DHT22;15148;48.972;12.794;2022-11-20T22:00:54;3.00;99.90
27759;DHT22;15148;48.972;12.794;2022-11-20T22:05:56;3.00;99.90
27759;DHT22;15148;48.972;12.794;2022-11-20T22:11:01;3.00;99.90
27759;DHT22;15148;48.972;12.794;2022-11-20T22:16:03;3.00;99.90
27759;DHT22;15148;48.972;12.794;2022-11-20T22:21:06;3.10;99.90
27759;DHT22;15148;48.972;12.794;2022-11-20T22:26:13;3.20;99.90
27759;DHT22;15148;48.972;12.794;2022-11-20T22:31:15;3.30;99.90
27759;DHT22;15148;48.972;12.794;2022-11-20T22:36:26;3.30;99.90
27759;DHT22;15148;48.972;12.794;2022-11-20T22:41:29;3.30;99.90
27759;DHT22;15148;48.972;12.794;2022-11-20T22:46:33;3.30;99.90
27759;DHT22;15148;48.972;12.794;2022-11-20T22:51:37;3.30;99.90
27759;DHT22;15148;48.972;12.794;2022-11-20T22:56:39;3.40;99.90
27759;DHT22;15148;48.972;12.794;2022-11-20T23:01:41;3.40;99.90
27759;DHT22;15148;48.972;12.794;2022-11-20T23:06:44;3.50;99.90
27759;DHT22;15148;48.972;12.794;2022-11-20T23:11:46;3.50;99.90
27759;DHT22;15148;48.972;12.794;2022-11-20T23:16:48;3.50;99.90
27759;DHT22;15148;48.972;12.794;2022-11-20T23:21:50;3.60;99.90
27759;DHT22;15148;48.972;12.794;2022-11-20T23:26:52;3.60;99.90
27759;DHT22;15148;48.972;12.794;2022-11-20T23:31:54;3.70;99.90
27759;DHT22;15148;48.972;12.794;2022-11-20T23:36:56;3.70;99.90
27759;DHT22;15148;48.972;12.794;2022-11-20T23:41:58;3.70;99.90
27759;DHT22;15148;48.972;12.794;2022-11-20T23:46:59;3.80;99.90
27759;DHT22;15148;48.972;12.794;2022-11-20T23:52:01;3.80;99.90
27759;DHT22;15148;48.972;12.794;2022-11-20T23:57:03;3.70;99.90
